createdAt,value
2022-11-01T00:00:11.561Z,13.74
2022-11-01T00:00:45.655Z,13.74
2022-11-01T00:01:17.349Z,13.77
2022-11-01T00:01:50.055Z,13.80
2022-11-01T00:02:21.756Z,13.86
2022-11-01T00:02:53.259Z,13.87
2022-11-01T00:03:24.931Z,13.87
2022-11-01T00:03:56.832Z,13.91
2022-11-01T00:04:28.388Z,13.89
2022-11-01T00:04:59.918Z,13.91
2022-11-01T00:05:31.437Z,13.92
2022-11-01T00:06:03.295Z,13.92
2022-11-01T00:06:37.686Z,13.95
2022-11-01T00:07:09.271Z,14.00
2022-11-01T00:07:40.829Z,14.04
2022-11-01T00:08:12.354Z,14.07
2022-11-01T00:08:43.909Z,14.07
2022-11-01T00:09:15.790Z,14.08
2022-11-01T00:09:47.474Z,14.08
2022-11-01T00:10:19.271Z,14.07
2022-11-01T00:10:50.782Z,14.07
2022-11-01T00:11:22.316Z,14.06
2022-11-01T00:11:54.117Z,14.04
2022-11-01T00:12:25.640Z,14.04
2022-11-01T00:12:57.212Z,14.04
2022-11-01T00:13:29.048Z,14.04
2022-11-01T00:14:00.678Z,14.02
2022-11-01T00:14:32.307Z,14.00
2022-11-01T00:15:04.052Z,13.99
2022-11-01T00:15:35.558Z,13.97
2022-11-01T00:16:07.381Z,14.00
2022-11-01T00:16:38.943Z,14.01
2022-11-01T00:17:10.705Z,14.02
2022-11-01T00:17:42.379Z,14.02
2022-11-01T00:18:13.929Z,14.03
2022-11-01T00:18:45.919Z,14.03
2022-11-01T00:19:17.608Z,14.02
2022-11-01T00:19:49.129Z,14.03
2022-11-01T00:20:20.677Z,14.04
2022-11-01T00:20:52.221Z,14.04
2022-11-01T00:21:24.192Z,14.04
2022-11-01T00:21:55.722Z,14.03
2022-11-01T00:22:27.269Z,14.04
2022-11-01T00:22:59.076Z,14.02
2022-11-01T00:23:30.737Z,14.01
2022-11-01T00:24:02.302Z,14.02
2022-11-01T00:24:33.821Z,14.02
2022-11-01T00:25:05.806Z,14.02
2022-11-01T00:25:37.407Z,14.03
2022-11-01T00:26:10.510Z,14.01
2022-11-01T00:26:42.323Z,14.00
2022-11-01T00:27:13.841Z,14.00
2022-11-01T00:27:45.393Z,14.00
2022-11-01T00:28:17.022Z,13.99
2022-11-01T00:28:49.230Z,13.99
2022-11-01T00:29:20.828Z,13.98
2022-11-01T00:29:52.326Z,13.98
2022-11-01T00:30:23.893Z,13.99
2022-11-01T00:30:56.858Z,13.98
2022-11-01T00:31:28.433Z,13.99
2022-11-01T00:32:00.362Z,13.98
2022-11-01T00:32:31.850Z,13.98
2022-11-01T00:33:03.910Z,13.99
2022-11-01T00:33:37.183Z,14.00
2022-11-01T00:34:08.922Z,14.00
2022-11-01T00:34:40.446Z,13.97
2022-11-01T00:35:11.955Z,13.97
2022-11-01T00:35:43.572Z,13.95
2022-11-01T00:36:15.456Z,13.96
2022-11-01T00:36:47.211Z,13.96
2022-11-01T00:37:18.868Z,13.95
2022-11-01T00:37:50.548Z,13.97
2022-11-01T00:38:22.079Z,13.93
2022-11-01T00:38:53.718Z,13.93
2022-11-01T00:39:30.378Z,13.96
2022-11-01T00:40:03.105Z,13.95
2022-11-01T00:40:34.616Z,13.96
2022-11-01T00:41:06.374Z,13.96
2022-11-01T00:41:38.033Z,13.95
2022-11-01T00:42:09.547Z,13.95
2022-11-01T00:42:41.070Z,14.03
2022-11-01T00:43:12.922Z,14.05
2022-11-01T00:43:44.464Z,14.05
2022-11-01T00:44:17.978Z,14.04
2022-11-01T00:44:49.500Z,14.03
2022-11-01T00:45:21.056Z,14.05
2022-11-01T00:45:52.589Z,14.07
2022-11-01T00:46:24.116Z,14.08
2022-11-01T00:46:55.728Z,14.07
2022-11-01T00:47:30.151Z,14.06
2022-11-01T00:48:01.955Z,14.05
2022-11-01T00:48:33.639Z,14.05
2022-11-01T00:49:05.137Z,14.03
2022-11-01T00:49:36.651Z,14.03
2022-11-01T00:50:08.756Z,14.03
2022-11-01T00:50:40.713Z,14.04
2022-11-01T00:51:12.236Z,14.03
2022-11-01T00:51:43.749Z,14.02
2022-11-01T00:52:16.165Z,14.02
2022-11-01T00:52:47.815Z,14.01
2022-11-01T00:53:19.795Z,14.00
2022-11-01T00:53:51.426Z,14.01
2022-11-01T00:54:22.972Z,14.02
2022-11-01T00:54:54.481Z,14.02
2022-11-01T00:55:26.178Z,14.01
2022-11-01T00:56:07.319Z,14.02
2022-11-01T00:56:38.844Z,14.02
2022-11-01T00:57:10.420Z,14.02
2022-11-01T00:57:44.173Z,14.03
2022-11-01T00:58:15.737Z,14.04
2022-11-01T00:58:47.232Z,14.05
2022-11-01T00:59:18.743Z,14.05
2022-11-01T00:59:50.290Z,14.05
2022-11-01T01:00:22.269Z,14.03
2022-11-01T01:00:53.825Z,14.04
2022-11-01T01:01:25.486Z,14.05
2022-11-01T01:01:57.252Z,14.06
2022-11-01T01:02:28.941Z,14.07
2022-11-01T01:03:00.673Z,14.05
2022-11-01T01:03:32.432Z,14.04
2022-11-01T01:04:04.159Z,14.04
2022-11-01T01:04:41.466Z,14.03
2022-11-01T01:05:13.085Z,14.03
2022-11-01T01:05:44.594Z,14.04
2022-11-01T01:06:16.120Z,14.04
2022-11-01T01:06:47.682Z,14.04
2022-11-01T01:07:19.268Z,14.03
2022-11-01T01:07:50.984Z,14.03
2022-11-01T01:08:23.474Z,14.06
2022-11-01T01:08:58.937Z,14.02
2022-11-01T01:09:30.487Z,14.02
2022-11-01T01:10:02.152Z,14.03
2022-11-01T01:10:33.702Z,14.03
2022-11-01T01:11:05.486Z,14.01
2022-11-01T01:11:37.053Z,14.00
2022-11-01T01:12:09.297Z,14.00
2022-11-01T01:12:40.903Z,14.01
2022-11-01T01:13:12.399Z,14.00
2022-11-01T01:13:43.933Z,14.02
2022-11-01T01:14:15.666Z,14.00
2022-11-01T01:14:47.311Z,14.00
2022-11-01T01:15:19.532Z,14.00
2022-11-01T01:15:51.171Z,13.99
2022-11-01T01:16:23.101Z,14.01
2022-11-01T01:16:54.843Z,14.04
2022-11-01T01:17:28.753Z,14.03
2022-11-01T01:18:03.191Z,14.05
2022-11-01T01:18:35.160Z,14.06
2022-11-01T01:19:06.679Z,14.06
2022-11-01T01:19:38.432Z,14.06
2022-11-01T01:20:10.483Z,14.08
2022-11-01T01:20:42.297Z,14.06
2022-11-01T01:21:14.212Z,14.07
2022-11-01T01:21:46.244Z,14.08
2022-11-01T01:22:17.757Z,14.10
2022-11-01T01:22:49.432Z,14.10
2022-11-01T01:23:20.969Z,14.09
2022-11-01T01:23:54.737Z,14.10
2022-11-01T01:24:26.313Z,14.10
2022-11-01T01:24:57.960Z,14.13
2022-11-01T01:25:29.606Z,14.12
2022-11-01T01:26:05.631Z,14.12
2022-11-01T01:26:37.509Z,14.10
2022-11-01T01:27:09.002Z,14.09
2022-11-01T01:27:40.720Z,14.10
2022-11-01T01:28:12.515Z,14.09
2022-11-01T01:28:45.021Z,14.11
2022-11-01T01:29:17.033Z,14.13
2022-11-01T01:29:48.546Z,14.16
2022-11-01T01:30:20.119Z,14.20
2022-11-01T01:30:51.655Z,14.19
2022-11-01T01:31:23.281Z,14.20
2022-11-01T01:31:54.882Z,14.23
2022-11-01T01:32:26.533Z,14.24
2022-11-01T01:32:58.129Z,14.24
2022-11-01T01:33:30.200Z,14.23
2022-11-01T01:34:01.712Z,14.22
2022-11-01T01:34:33.571Z,14.22
2022-11-01T01:35:05.656Z,14.27
2022-11-01T01:35:39.959Z,14.23
2022-11-01T01:36:11.632Z,14.20
2022-11-01T01:36:43.494Z,14.19
2022-11-01T01:37:15.688Z,14.18
2022-11-01T01:37:47.244Z,14.15
2022-11-01T01:38:18.765Z,14.15
2022-11-01T01:38:53.258Z,14.14
2022-11-01T01:39:24.805Z,14.12
2022-11-01T01:39:56.501Z,14.11
2022-11-01T01:40:28.013Z,14.10
2022-11-01T01:41:19.499Z,14.10
2022-11-01T01:41:56.771Z,14.08
2022-11-01T01:42:31.231Z,14.06
2022-11-01T01:43:02.776Z,14.03
2022-11-01T01:43:41.800Z,14.03
2022-11-01T01:44:50.386Z,14.00
2022-11-01T01:45:38.629Z,13.98
2022-11-01T01:46:10.544Z,13.96
2022-11-01T01:46:42.182Z,13.96
2022-11-01T01:47:23.235Z,13.93
2022-11-01T01:47:56.247Z,13.89
2022-11-01T01:48:27.835Z,13.88
2022-11-01T01:48:59.761Z,13.87
2022-11-01T01:49:31.276Z,13.84
2022-11-01T01:50:36.088Z,13.84
2022-11-01T01:51:15.529Z,13.82
2022-11-01T01:51:47.052Z,13.83
2022-11-01T01:52:19.626Z,13.82
2022-11-01T01:53:01.783Z,13.82
2022-11-01T01:53:42.542Z,13.82
2022-11-01T01:54:14.055Z,13.81
2022-11-01T01:54:45.873Z,13.81
2022-11-01T01:55:21.803Z,13.81
2022-11-01T01:55:57.106Z,13.80
2022-11-01T01:56:34.522Z,13.80
2022-11-01T01:57:06.227Z,13.79
2022-11-01T01:57:39.000Z,13.78
2022-11-01T01:58:12.376Z,13.81
2022-11-01T01:58:47.815Z,13.80
2022-11-01T01:59:19.830Z,13.79
2022-11-01T01:59:52.325Z,13.80
2022-11-01T02:00:25.022Z,13.79
2022-11-01T02:00:56.787Z,13.80
2022-11-01T02:01:28.806Z,13.80
2022-11-01T02:02:05.340Z,13.81
2022-11-01T02:02:37.028Z,13.80
2022-11-01T02:03:08.593Z,13.79
2022-11-01T02:03:40.643Z,13.77
2022-11-01T02:04:18.313Z,13.76
2022-11-01T02:04:56.098Z,13.75
2022-11-01T02:05:46.128Z,13.76
2022-11-01T02:06:21.097Z,13.78
2022-11-01T02:06:52.873Z,13.79
2022-11-01T02:07:24.808Z,13.83
2022-11-01T02:07:56.616Z,13.84
2022-11-01T02:08:28.470Z,13.85
2022-11-01T02:09:01.842Z,13.85
2022-11-01T02:09:33.959Z,13.82
2022-11-01T02:10:06.369Z,13.82
2022-11-01T02:10:38.353Z,13.83
2022-11-01T02:11:10.580Z,13.84
2022-11-01T02:11:42.179Z,13.86
2022-11-01T02:12:14.126Z,13.86
2022-11-01T02:12:47.871Z,13.89
2022-11-01T02:13:19.435Z,13.89
2022-11-01T02:13:51.541Z,13.90
2022-11-01T02:14:24.071Z,13.89
2022-11-01T02:14:55.881Z,13.90
2022-11-01T02:15:35.841Z,13.92
2022-11-01T02:16:19.419Z,13.93
2022-11-01T02:17:10.259Z,13.92
2022-11-01T02:18:09.297Z,13.97
2022-11-01T02:19:02.258Z,13.97
2022-11-01T02:19:46.038Z,13.96
2022-11-01T02:20:33.047Z,13.95
2022-11-01T02:21:23.149Z,13.91
2022-11-01T02:22:02.339Z,13.90
2022-11-01T02:23:07.855Z,13.87
2022-11-01T02:24:07.130Z,13.86
2022-11-01T02:24:55.575Z,13.87
2022-11-01T02:25:44.208Z,13.86
2022-11-01T02:26:29.409Z,13.84
2022-11-01T02:27:29.377Z,13.90
2022-11-01T02:28:39.124Z,13.91
2022-11-01T02:30:00.365Z,13.96
2022-11-01T02:30:43.651Z,14.04
2022-11-01T02:31:46.008Z,14.05
2022-11-01T02:32:21.148Z,14.07
2022-11-01T02:33:01.996Z,14.09
2022-11-01T02:33:47.188Z,14.09
2022-11-01T02:34:39.096Z,14.15
2022-11-01T02:35:49.192Z,14.17
2022-11-01T02:36:24.027Z,14.18
2022-11-01T02:37:05.103Z,14.21
2022-11-01T02:37:56.053Z,14.22
2022-11-01T02:38:38.106Z,14.25
2022-11-01T02:39:16.905Z,14.27
2022-11-01T02:39:52.523Z,14.28
2022-11-01T02:40:45.198Z,14.31
2022-11-01T02:41:26.980Z,14.32
2022-11-01T02:42:05.320Z,14.34
2022-11-01T02:42:42.084Z,14.41
2022-11-01T02:43:17.470Z,14.42
2022-11-01T02:43:51.170Z,14.41
2022-11-01T02:44:25.989Z,14.43
2022-11-01T02:45:10.518Z,14.46
2022-11-01T02:45:46.607Z,14.43
2022-11-01T02:46:38.660Z,14.44
2022-11-01T02:47:12.151Z,14.41
2022-11-01T02:47:43.793Z,14.40
2022-11-01T02:48:16.339Z,14.37
2022-11-01T02:48:48.494Z,14.37
2022-11-01T02:49:22.006Z,14.35
2022-11-01T02:49:59.911Z,14.33
2022-11-01T02:50:44.062Z,14.36
2022-11-01T02:51:17.375Z,14.40
2022-11-01T02:51:49.665Z,14.40
2022-11-01T02:52:23.883Z,14.40
2022-11-01T02:52:55.836Z,14.38
2022-11-01T02:53:27.369Z,14.36
2022-11-01T02:54:08.744Z,14.35
2022-11-01T02:54:43.354Z,14.34
2022-11-01T02:55:33.937Z,14.34
2022-11-01T02:56:05.856Z,14.30
2022-11-01T02:56:38.817Z,14.29
2022-11-01T02:57:33.855Z,14.26
2022-11-01T02:58:07.215Z,14.19
2022-11-01T02:58:39.617Z,14.14
2022-11-01T02:59:16.188Z,14.09
2022-11-01T02:59:48.825Z,14.13
2022-11-01T03:00:23.636Z,14.10
2022-11-01T03:00:57.125Z,14.11
2022-11-01T03:01:34.414Z,14.09
2022-11-01T03:02:09.779Z,14.08
2022-11-01T03:02:44.252Z,14.09
2022-11-01T03:03:23.096Z,14.11
2022-11-01T03:03:56.427Z,14.15
2022-11-01T03:04:27.984Z,14.12
2022-11-01T03:04:59.746Z,14.10
2022-11-01T03:05:39.272Z,14.07
2022-11-01T03:06:43.485Z,14.09
2022-11-01T03:07:16.372Z,14.06
2022-11-01T03:07:57.412Z,14.08
2022-11-01T03:08:35.692Z,14.08
2022-11-01T03:09:11.983Z,14.09
2022-11-01T03:09:43.975Z,14.06
2022-11-01T03:10:16.072Z,14.02
2022-11-01T03:10:59.076Z,14.01
2022-11-01T03:11:37.284Z,14.10
2022-11-01T03:12:35.609Z,14.10
2022-11-01T03:13:13.344Z,14.07
2022-11-01T03:13:53.880Z,14.06
2022-11-01T03:15:03.897Z,14.06
2022-11-01T03:15:40.100Z,14.07
2022-11-01T03:16:25.513Z,14.11
2022-11-01T03:17:22.999Z,14.07
2022-11-01T03:18:09.802Z,14.12
2022-11-01T03:18:50.241Z,14.13
2022-11-01T03:19:24.339Z,14.11
2022-11-01T03:20:22.744Z,14.10
2022-11-01T03:21:15.783Z,14.09
2022-11-01T03:21:57.418Z,14.07
2022-11-01T03:22:35.559Z,14.06
2022-11-01T03:23:07.991Z,14.06
2022-11-01T03:23:45.116Z,14.04
2022-11-01T03:24:23.050Z,14.04
2022-11-01T03:25:28.226Z,14.05
2022-11-01T03:26:03.287Z,14.05
2022-11-01T03:26:35.387Z,14.03
2022-11-01T03:27:11.152Z,14.06
2022-11-01T03:27:44.762Z,14.05
2022-11-01T03:28:21.025Z,14.06
2022-11-01T03:29:33.293Z,14.09
2022-11-01T03:30:10.646Z,14.07
2022-11-01T03:30:46.369Z,14.08
2022-11-01T03:31:23.475Z,14.06
2022-11-01T03:31:55.291Z,14.06
2022-11-01T03:32:30.337Z,14.08
2022-11-01T03:33:02.234Z,14.11
2022-11-01T03:33:35.194Z,14.12
2022-11-01T03:34:14.002Z,14.11
2022-11-01T03:34:45.743Z,14.12
2022-11-01T03:35:20.269Z,14.09
2022-11-01T03:35:54.416Z,14.06
2022-11-01T03:36:30.548Z,14.07
2022-11-01T03:37:04.892Z,14.08
2022-11-01T03:37:39.589Z,14.10
2022-11-01T03:38:15.833Z,14.10
2022-11-01T03:38:54.411Z,14.10
2022-11-01T03:39:32.667Z,14.10
2022-11-01T03:40:05.167Z,14.05
2022-11-01T03:40:39.403Z,14.05
2022-11-01T03:41:13.772Z,14.05
2022-11-01T03:41:49.151Z,14.08
2022-11-01T03:42:21.728Z,14.05
2022-11-01T03:42:53.679Z,14.06
2022-11-01T03:43:26.808Z,14.08
2022-11-01T03:43:58.656Z,14.10
2022-11-01T03:44:42.375Z,14.09
2022-11-01T03:45:15.577Z,14.11
2022-11-01T03:45:47.316Z,14.10
2022-11-01T03:46:19.177Z,14.10
2022-11-01T03:46:51.312Z,14.11
2022-11-01T03:47:22.866Z,14.10
2022-11-01T03:47:54.448Z,14.12
2022-11-01T03:48:26.026Z,14.15
2022-11-01T03:48:57.569Z,14.17
2022-11-01T03:49:29.120Z,14.16
2022-11-01T03:50:17.095Z,14.14
2022-11-01T03:50:50.371Z,14.18
2022-11-01T03:51:21.878Z,14.15
2022-11-01T03:51:53.420Z,14.19
2022-11-01T03:52:24.932Z,14.17
2022-11-01T03:52:56.553Z,14.16
2022-11-01T03:53:28.196Z,14.18
2022-11-01T03:53:59.837Z,14.17
2022-11-01T03:54:31.516Z,14.20
2022-11-01T03:55:18.053Z,14.19
2022-11-01T03:55:50.322Z,14.21
2022-11-01T03:56:22.094Z,14.22
2022-11-01T03:56:53.755Z,14.26
2022-11-01T03:57:25.300Z,14.25
2022-11-01T03:57:58.767Z,14.26
2022-11-01T03:58:41.810Z,14.24
2022-11-01T03:59:13.621Z,14.32
2022-11-01T03:59:45.333Z,14.31
2022-11-01T04:00:21.094Z,14.28
2022-11-01T04:00:54.419Z,14.31
2022-11-01T04:01:26.020Z,14.33
2022-11-01T04:01:57.725Z,14.31
2022-11-01T04:02:29.363Z,14.31
2022-11-01T04:03:01.606Z,14.29
2022-11-01T04:03:33.537Z,14.26
2022-11-01T04:04:05.308Z,14.22
2022-11-01T04:04:36.852Z,14.21
2022-11-01T04:05:08.519Z,14.17
2022-11-01T04:05:41.164Z,14.17
2022-11-01T04:06:12.789Z,14.21
2022-11-01T04:06:44.312Z,14.24
2022-11-01T04:07:15.816Z,14.25
2022-11-01T04:07:48.015Z,14.23
2022-11-01T04:08:19.539Z,14.21
2022-11-01T04:08:51.958Z,14.20
2022-11-01T04:09:23.550Z,14.19
2022-11-01T04:09:55.060Z,14.17
2022-11-01T04:10:27.399Z,14.17
2022-11-01T04:10:59.582Z,14.17
2022-11-01T04:11:31.236Z,14.16
2022-11-01T04:12:02.768Z,14.17
2022-11-01T04:12:34.296Z,14.20
2022-11-01T04:13:06.163Z,14.20
2022-11-01T04:13:39.012Z,14.21
2022-11-01T04:14:29.193Z,14.21
2022-11-01T04:15:19.383Z,14.21
2022-11-01T04:16:09.531Z,14.22
2022-11-01T04:16:59.563Z,14.20
2022-11-01T04:17:49.513Z,14.17
2022-11-01T04:18:41.905Z,14.13
2022-11-01T04:19:32.050Z,14.20
2022-11-01T04:20:22.404Z,14.22
2022-11-01T04:20:54.055Z,14.23
2022-11-01T04:21:26.386Z,14.22
2022-11-01T04:21:57.896Z,14.20
2022-11-01T04:22:29.404Z,14.15
2022-11-01T04:23:05.131Z,14.15
2022-11-01T04:23:37.249Z,14.17
2022-11-01T04:24:09.342Z,14.17
2022-11-01T04:24:40.858Z,14.16
2022-11-01T04:25:12.329Z,14.18
2022-11-01T04:25:46.059Z,14.17
2022-11-01T04:26:22.457Z,14.15
2022-11-01T04:26:53.985Z,14.13
2022-11-01T04:27:25.454Z,14.14
2022-11-01T04:27:57.203Z,14.15
2022-11-01T04:28:29.008Z,14.16
2022-11-01T04:29:00.968Z,14.21
2022-11-01T04:29:32.532Z,14.17
2022-11-01T04:30:04.485Z,14.17
2022-11-01T04:30:35.979Z,14.18
2022-11-01T04:31:07.640Z,14.19
2022-11-01T04:31:39.171Z,14.19
2022-11-01T04:32:10.709Z,14.17
2022-11-01T04:32:45.227Z,14.16
2022-11-01T04:33:16.898Z,14.14
2022-11-01T04:33:48.405Z,14.12
2022-11-01T04:34:39.948Z,14.07
2022-11-01T04:35:12.294Z,14.06
2022-11-01T04:35:44.317Z,14.10
2022-11-01T04:36:16.019Z,14.13
2022-11-01T04:36:47.555Z,14.09
2022-11-01T04:37:19.608Z,14.07
2022-11-01T04:37:58.260Z,14.07
2022-11-01T04:38:29.753Z,14.08
2022-11-01T04:39:01.288Z,14.10
2022-11-01T04:39:32.805Z,14.09
2022-11-01T04:40:07.422Z,14.14
2022-11-01T04:40:39.793Z,14.11
2022-11-01T04:41:11.306Z,14.09
2022-11-01T04:41:45.088Z,14.15
2022-11-01T04:42:16.573Z,14.14
2022-11-01T04:42:48.456Z,14.14
2022-11-01T04:43:22.779Z,14.11
2022-11-01T04:43:56.098Z,14.12
2022-11-01T04:44:27.786Z,14.16
2022-11-01T04:44:59.284Z,14.18
2022-11-01T04:45:30.791Z,14.17
2022-11-01T04:46:02.560Z,14.23
2022-11-01T04:46:34.051Z,14.24
2022-11-01T04:47:05.655Z,14.26
2022-11-01T04:47:37.166Z,14.28
2022-11-01T04:48:13.821Z,14.32
2022-11-01T04:48:45.483Z,14.33
2022-11-01T04:49:17.107Z,14.47
2022-11-01T04:49:48.621Z,14.55
2022-11-01T04:50:20.723Z,14.62
2022-11-01T04:50:52.395Z,14.64
2022-11-01T04:51:24.193Z,14.68
2022-11-01T04:51:55.767Z,14.71
2022-11-01T04:52:28.211Z,14.73
2022-11-01T04:53:00.941Z,14.64
2022-11-01T04:53:32.772Z,14.69
2022-11-01T04:54:04.296Z,14.74
2022-11-01T04:54:35.773Z,14.76
2022-11-01T04:55:07.608Z,14.80
2022-11-01T04:55:39.473Z,14.86
2022-11-01T04:56:12.361Z,14.86
2022-11-01T04:56:43.861Z,14.90
2022-11-01T04:57:25.119Z,14.92
2022-11-01T04:57:57.100Z,14.96
2022-11-01T04:58:28.673Z,14.95
2022-11-01T04:59:00.250Z,15.01
2022-11-01T04:59:31.779Z,15.04
2022-11-01T05:00:04.168Z,15.03
2022-11-01T05:00:35.794Z,14.98
2022-11-01T05:01:08.216Z,14.93
2022-11-01T05:01:39.891Z,14.91
2022-11-01T05:02:11.504Z,14.91
2022-11-01T05:02:43.172Z,14.89
2022-11-01T05:03:14.714Z,14.89
2022-11-01T05:03:48.134Z,14.82
2022-11-01T05:04:19.680Z,14.81
2022-11-01T05:04:51.319Z,14.83
2022-11-01T05:05:22.874Z,14.82
2022-11-01T05:05:54.397Z,14.85
2022-11-01T05:06:25.908Z,14.81
2022-11-01T05:06:58.671Z,14.86
2022-11-01T05:07:30.214Z,14.85
2022-11-01T05:08:40.693Z,14.91
2022-11-01T05:09:12.188Z,14.86
2022-11-01T05:09:43.794Z,14.88
2022-11-01T05:10:15.310Z,14.93
2022-11-01T05:10:46.810Z,14.94
2022-11-01T05:11:18.366Z,14.94
2022-11-01T05:11:50.039Z,14.94
2022-11-01T05:12:21.561Z,14.96
2022-11-01T05:12:53.073Z,14.94
2022-11-01T05:13:24.758Z,15.02
2022-11-01T05:13:56.357Z,14.93
2022-11-01T05:14:27.863Z,14.88
2022-11-01T05:14:59.378Z,14.87
2022-11-01T05:15:31.558Z,14.90
2022-11-01T05:16:18.900Z,14.88
2022-11-01T05:16:51.286Z,14.78
2022-11-01T05:17:23.037Z,14.73
2022-11-01T05:17:54.609Z,14.68
2022-11-01T05:18:26.186Z,14.62
2022-11-01T05:18:57.711Z,14.58
2022-11-01T05:19:30.272Z,14.55
2022-11-01T05:20:01.850Z,14.53
2022-11-01T05:20:33.393Z,14.53
2022-11-01T05:21:05.056Z,14.55
2022-11-01T05:21:36.539Z,14.44
2022-11-01T05:22:08.112Z,14.40
2022-11-01T05:22:39.610Z,14.42
2022-11-01T05:23:11.100Z,14.42
2022-11-01T05:23:42.653Z,14.41
2022-11-01T05:24:14.178Z,14.38
2022-11-01T05:24:45.777Z,14.42
2022-11-01T05:25:18.013Z,14.37
2022-11-01T05:25:49.544Z,14.34
2022-11-01T05:26:21.230Z,14.40
2022-11-01T05:26:52.735Z,14.47
2022-11-01T05:27:24.296Z,14.39
2022-11-01T05:28:10.889Z,14.40
2022-11-01T05:28:42.440Z,14.38
2022-11-01T05:29:24.523Z,14.36
2022-11-01T05:30:05.059Z,14.41
2022-11-01T05:30:37.213Z,14.38
2022-11-01T05:31:08.951Z,14.41
2022-11-01T05:31:40.458Z,14.35
2022-11-01T05:32:12.238Z,14.32
2022-11-01T05:32:43.743Z,14.34
2022-11-01T05:33:15.276Z,14.32
2022-11-01T05:33:46.790Z,14.31
2022-11-01T05:34:18.409Z,14.23
2022-11-01T05:34:49.997Z,14.25
2022-11-01T05:35:21.873Z,14.31
2022-11-01T05:35:53.403Z,14.22
2022-11-01T05:36:25.104Z,14.22
2022-11-01T05:36:56.824Z,14.19
2022-11-01T05:37:28.442Z,14.24
2022-11-01T05:38:01.770Z,14.14
2022-11-01T05:38:33.541Z,14.13
2022-11-01T05:39:05.065Z,14.07
2022-11-01T05:39:36.606Z,14.05
2022-11-01T05:40:08.710Z,14.03
2022-11-01T05:40:41.152Z,13.99
2022-11-01T05:41:49.724Z,14.00
2022-11-01T05:42:21.492Z,14.03
2022-11-01T05:42:53.777Z,14.02
2022-11-01T05:43:25.676Z,14.02
2022-11-01T05:43:57.410Z,13.98
2022-11-01T05:44:29.698Z,13.94
2022-11-01T05:45:01.294Z,13.89
2022-11-01T05:45:32.929Z,13.89
2022-11-01T05:46:07.926Z,13.86
2022-11-01T05:46:39.472Z,13.86
2022-11-01T05:47:16.079Z,13.82
2022-11-01T05:47:48.763Z,13.77
2022-11-01T05:48:20.410Z,13.78
2022-11-01T05:48:51.917Z,13.71
2022-11-01T05:49:24.634Z,13.76
2022-11-01T05:49:56.168Z,13.84
2022-11-01T05:50:27.735Z,13.77
2022-11-01T05:50:59.240Z,13.79
2022-11-01T05:51:30.774Z,13.82
2022-11-01T05:52:02.450Z,13.84
2022-11-01T05:52:33.981Z,13.79
2022-11-01T05:53:07.512Z,13.76
2022-11-01T05:53:39.237Z,13.77
2022-11-01T05:54:10.807Z,13.75
2022-11-01T05:54:42.278Z,13.70
2022-11-01T05:55:13.924Z,13.74
2022-11-01T05:55:45.450Z,13.71
2022-11-01T05:56:18.008Z,13.73
2022-11-01T05:56:49.645Z,13.67
2022-11-01T05:57:21.141Z,13.71
2022-11-01T05:57:58.309Z,13.70
2022-11-01T05:58:30.959Z,13.67
2022-11-01T05:59:02.725Z,13.68
2022-11-01T05:59:34.344Z,13.72
2022-11-01T06:00:06.691Z,13.60
2022-11-01T06:00:44.045Z,13.60
2022-11-01T06:01:17.881Z,13.58
2022-11-01T06:01:49.603Z,13.61
2022-11-01T06:02:21.337Z,13.63
2022-11-01T06:02:52.986Z,13.59
2022-11-01T06:03:24.649Z,13.59
2022-11-01T06:04:01.672Z,13.52
2022-11-01T06:04:33.169Z,13.55
2022-11-01T06:05:05.066Z,13.54
2022-11-01T06:05:37.821Z,13.57
2022-11-01T06:06:10.263Z,13.48
2022-11-01T06:06:41.792Z,13.47
2022-11-01T06:07:13.383Z,13.48
2022-11-01T06:07:44.882Z,13.44
2022-11-01T06:08:16.440Z,13.40
2022-11-01T06:08:47.967Z,13.41
2022-11-01T06:09:19.566Z,13.41
2022-11-01T06:09:51.094Z,13.44
2022-11-01T06:10:22.648Z,13.46
2022-11-01T06:11:01.061Z,13.38
2022-11-01T06:11:32.612Z,13.30
2022-11-01T06:12:04.992Z,13.27
2022-11-01T06:12:36.486Z,13.23
2022-11-01T06:13:08.715Z,13.20
2022-11-01T06:13:40.375Z,13.23
2022-11-01T06:14:12.121Z,13.23
2022-11-01T06:14:43.794Z,13.28
2022-11-01T06:15:15.496Z,13.21
2022-11-01T06:15:47.442Z,13.17
2022-11-01T06:16:18.974Z,13.19
2022-11-01T06:16:50.518Z,13.25
2022-11-01T06:17:22.045Z,13.26
2022-11-01T06:17:58.160Z,13.26
2022-11-01T06:18:30.258Z,13.25
2022-11-01T06:19:01.810Z,13.27
2022-11-01T06:19:33.407Z,13.27
2022-11-01T06:20:05.662Z,13.29
2022-11-01T06:20:38.211Z,13.26
2022-11-01T06:21:09.773Z,13.27
2022-11-01T06:21:41.304Z,13.27
2022-11-01T06:22:12.828Z,13.28
2022-11-01T06:22:47.330Z,13.27
2022-11-01T06:23:18.937Z,13.25
2022-11-01T06:23:50.672Z,13.28
2022-11-01T06:24:22.257Z,13.23
2022-11-01T06:24:53.969Z,13.26
2022-11-01T06:25:28.552Z,13.28
2022-11-01T06:26:01.987Z,13.25
2022-11-01T06:26:33.599Z,13.15
2022-11-01T06:27:09.812Z,13.22
2022-11-01T06:27:43.120Z,13.20
2022-11-01T06:28:15.189Z,13.21
2022-11-01T06:28:47.013Z,13.20
2022-11-01T06:29:18.683Z,13.19
2022-11-01T06:29:50.283Z,13.17
2022-11-01T06:30:22.169Z,13.16
2022-11-01T06:30:53.832Z,13.13
2022-11-01T06:31:25.423Z,13.18
2022-11-01T06:31:57.029Z,13.17
2022-11-01T06:32:28.606Z,13.13
2022-11-01T06:33:02.809Z,13.11
2022-11-01T06:33:34.676Z,13.05
2022-11-01T06:34:06.285Z,13.03
2022-11-01T06:34:42.262Z,12.94
2022-11-01T06:35:16.483Z,12.99
2022-11-01T06:35:48.016Z,13.06
2022-11-01T06:36:19.677Z,13.00
2022-11-01T06:36:51.582Z,12.99
2022-11-01T06:37:23.282Z,13.04
2022-11-01T06:37:55.271Z,12.92
2022-11-01T06:38:26.827Z,12.91
2022-11-01T06:38:58.441Z,12.87
2022-11-01T06:39:29.991Z,12.89
2022-11-01T06:40:01.505Z,12.87
2022-11-01T06:40:34.239Z,12.91
2022-11-01T06:41:05.868Z,12.90
2022-11-01T06:41:37.579Z,12.82
2022-11-01T06:42:10.350Z,12.83
2022-11-01T06:42:46.529Z,12.87
2022-11-01T06:43:18.376Z,12.89
2022-11-01T06:43:50.206Z,12.89
2022-11-01T06:44:22.143Z,12.87
2022-11-01T06:44:53.668Z,12.89
2022-11-01T06:45:25.167Z,12.91
2022-11-01T06:46:00.160Z,12.91
2022-11-01T06:46:31.690Z,12.87
2022-11-01T06:47:03.359Z,12.84
2022-11-01T06:47:34.961Z,12.82
2022-11-01T06:48:06.703Z,12.82
2022-11-01T06:48:38.328Z,12.88
2022-11-01T06:49:12.408Z,12.83
2022-11-01T06:49:46.282Z,12.77
2022-11-01T06:50:17.792Z,12.77
2022-11-01T06:50:49.356Z,12.79
2022-11-01T06:51:21.215Z,12.79
2022-11-01T06:51:52.733Z,12.76
2022-11-01T06:52:24.527Z,12.80
2022-11-01T06:52:57.750Z,12.78
2022-11-01T06:53:29.873Z,12.80
2022-11-01T06:54:01.512Z,12.80
2022-11-01T06:54:33.394Z,12.81
2022-11-01T06:55:05.447Z,12.84
2022-11-01T06:55:37.486Z,12.85
2022-11-01T06:56:09.091Z,12.87
2022-11-01T06:56:40.628Z,12.86
2022-11-01T06:57:12.190Z,12.83
2022-11-01T06:57:56.403Z,12.79
2022-11-01T06:58:28.059Z,12.74
2022-11-01T06:59:00.259Z,12.82
2022-11-01T06:59:31.801Z,12.79
2022-11-01T07:00:04.482Z,12.76
2022-11-01T07:00:36.062Z,12.81
2022-11-01T07:01:07.979Z,12.81
2022-11-01T07:01:39.999Z,12.78
2022-11-01T07:02:14.466Z,12.81
2022-11-01T07:02:46.453Z,12.82
2022-11-01T07:03:18.408Z,12.82
2022-11-01T07:03:53.225Z,12.85
2022-11-01T07:04:27.013Z,12.88
2022-11-01T07:04:58.548Z,12.91
2022-11-01T07:05:35.958Z,12.90
2022-11-01T07:06:08.963Z,12.93
2022-11-01T07:06:40.663Z,12.97
2022-11-01T07:07:12.183Z,12.94
2022-11-01T07:07:43.706Z,12.94
2022-11-01T07:08:15.439Z,12.96
2022-11-01T07:08:46.946Z,12.94
2022-11-01T07:09:19.173Z,12.91
2022-11-01T07:09:50.876Z,12.93
2022-11-01T07:10:22.926Z,12.94
2022-11-01T07:10:55.129Z,12.91
2022-11-01T07:11:31.175Z,12.94
2022-11-01T07:12:03.216Z,12.94
2022-11-01T07:12:34.760Z,12.96
2022-11-01T07:13:07.582Z,12.96
2022-11-01T07:13:39.517Z,12.97
2022-11-01T07:14:11.272Z,12.99
2022-11-01T07:14:42.803Z,12.94
2022-11-01T07:15:14.479Z,12.92
2022-11-01T07:15:46.155Z,12.90
2022-11-01T07:16:17.776Z,12.90
2022-11-01T07:16:49.347Z,12.88
2022-11-01T07:17:20.930Z,12.95
2022-11-01T07:18:03.768Z,12.95
2022-11-01T07:18:35.866Z,12.98
2022-11-01T07:19:07.575Z,13.00
2022-11-01T07:19:39.117Z,13.03
2022-11-01T07:20:10.956Z,13.04
2022-11-01T07:20:42.641Z,13.06
2022-11-01T07:21:14.358Z,13.08
2022-11-01T07:21:46.394Z,13.06
2022-11-01T07:22:17.897Z,13.12